sensor_id;sensor_type;location;lat;lon;timestamp;temperature;humidity
28767;DHT22;15921;52.034;20.650;2023-12-20T00:01:05;6.30;99.90
28767;DHT22;15921;52.034;20.650;2023-12-20T00:03:31;6.30;99.90
28767;DHT22;15921;52.034;20.650;2023-12-20T00:05:56;6.20;99.90
28767;DHT22;15921;52.034;20.650;2023-12-20T00:08:22;6.30;99.90
28767;DHT22;15921;52.034;20.650;2023-12-20T00:10:48;6.30;99.90
28767;DHT22;15921;52.034;20.650;2023-12-20T00:13:13;6.30;99.90
28767;DHT22;15921;52.034;20.650;2023-12-20T00:15:39;6.20;99.90
28767;DHT22;15921;52.034;20.650;2023-12-20T00:18:05;6.20;99.90
28767;DHT22;15921;52.034;20.650;2023-12-20T00:20:30;6.20;99.90
28767;DHT22;15921;52.034;20.650;2023-12-20T00:22:57;6.30;99.90
28767;DHT22;15921;52.034;20.650;2023-12-20T00:25:26;6.30;99.90
28767;DHT22;15921;52.034;20.650;2023-12-20T00:27:51;6.30;99.90
28767;DHT22;15921;52.034;20.650;2023-12-20T00:30:18;6.20;99.90
28767;DHT22;15921;52.034;20.650;2023-12-20T00:32:44;6.20;99.90
28767;DHT22;15921;52.034;20.650;2023-12-20T00:35:15;6.20;99.90
28767;DHT22;15921;52.034;20.650;2023-12-20T00:37:42;6.20;99.90
28767;DHT22;15921;52.034;20.650;2023-12-20T00:40:08;6.20;99.90
28767;DHT22;15921;52.034;20.650;2023-12-20T00:42:34;6.20;99.90
28767;DHT22;15921;52.034;20.650;2023-12-20T00:45:00;6.20;99.90
28767;DHT22;15921;52.034;20.650;2023-12-20T00:47:26;6.20;99.90
28767;DHT22;15921;52.034;20.650;2023-12-20T00:49:52;6.20;99.90
28767;DHT22;15921;52.034;20.650;2023-12-20T00:52:18;6.20;99.90
28767;DHT22;15921;52.034;20.650;2023-12-20T00:54:44;6.20;99.90
28767;DHT22;15921;52.034;20.650;2023-12-20T00:57:10;6.20;99.90
28767;DHT22;15921;52.034;20.650;2023-12-20T00:59:36;6.20;99.90
28767;DHT22;15921;52.034;20.650;2023-12-20T01:02:01;6.20;99.90
28767;DHT22;15921;52.034;20.650;2023-12-20T01:04:27;6.30;99.90
28767;DHT22;15921;52.034;20.650;2023-12-20T01:06:53;6.20;99.90
28767;DHT22;15921;52.034;20.650;2023-12-20T01:09:19;6.20;99.90
28767;DHT22;15921;52.034;20.650;2023-12-20T01:11:45;6.20;99.90
28767;DHT22;15921;52.034;20.650;2023-12-20T01:14:14;6.20;99.90
28767;DHT22;15921;52.034;20.650;2023-12-20T01:16:40;6.20;99.90
28767;DHT22;15921;52.034;20.650;2023-12-20T01:19:05;6.20;99.90
28767;DHT22;15921;52.034;20.650;2023-12-20T01:21:32;6.30;99.90
28767;DHT22;15921;52.034;20.650;2023-12-20T01:23:57;6.30;99.90
28767;DHT22;15921;52.034;20.650;2023-12-20T01:26:23;6.30;99.90
28767;DHT22;15921;52.034;20.650;2023-12-20T01:28:49;6.30;99.90
28767;DHT22;15921;52.034;20.650;2023-12-20T01:31:15;6.30;99.90
28767;DHT22;15921;52.034;20.650;2023-12-20T01:33:40;6.30;99.90
28767;DHT22;15921;52.034;20.650;2023-12-20T01:36:06;6.30;99.90
28767;DHT22;15921;52.034;20.650;2023-12-20T01:38:32;6.30;99.90
28767;DHT22;15921;52.034;20.650;2023-12-20T01:40:58;6.30;99.90
28767;DHT22;15921;52.034;20.650;2023-12-20T01:43:23;6.20;99.90
28767;DHT22;15921;52.034;20.650;2023-12-20T01:45:49;6.20;99.90
28767;DHT22;15921;52.034;20.650;2023-12-20T01:48:16;6.20;99.90
28767;DHT22;15921;52.034;20.650;2023-12-20T01:50:42;6.20;99.90
28767;DHT22;15921;52.034;20.650;2023-12-20T01:53:11;6.20;99.90
28767;DHT22;15921;52.034;20.650;2023-12-20T01:55:39;6.20;99.90
28767;DHT22;15921;52.034;20.650;2023-12-20T01:58:07;6.20;99.90
28767;DHT22;15921;52.034;20.650;2023-12-20T02:00:33;6.20;99.90
28767;DHT22;15921;52.034;20.650;2023-12-20T02:03:04;6.20;99.90
28767;DHT22;15921;52.034;20.650;2023-12-20T02:05:31;6.20;99.90
28767;DHT22;15921;52.034;20.650;2023-12-20T02:07:58;6.20;99.90
28767;DHT22;15921;52.034;20.650;2023-12-20T02:10:24;6.20;99.90
28767;DHT22;15921;52.034;20.650;2023-12-20T02:12:50;6.20;99.90
28767;DHT22;15921;52.034;20.650;2023-12-20T02:15:16;6.30;99.90
28767;DHT22;15921;52.034;20.650;2023-12-20T02:17:42;6.30;99.90
28767;DHT22;15921;52.034;20.650;2023-12-20T02:20:08;6.30;99.90
28767;DHT22;15921;52.034;20.650;2023-12-20T02:22:34;6.30;99.90
28767;DHT22;15921;52.034;20.650;2023-12-20T02:24:59;6.30;99.90
28767;DHT22;15921;52.034;20.650;2023-12-20T02:27:25;6.30;99.90
28767;DHT22;15921;52.034;20.650;2023-12-20T02:29:51;6.30;99.90
28767;DHT22;15921;52.034;20.650;2023-12-20T02:32:17;6.30;99.90
28767;DHT22;15921;52.034;20.650;2023-12-20T02:34:44;6.20;99.90
28767;DHT22;15921;52.034;20.650;2023-12-20T02:37:09;6.20;99.90
28767;DHT22;15921;52.034;20.650;2023-12-20T02:39:35;6.20;99.90
28767;DHT22;15921;52.034;20.650;2023-12-20T02:42:01;6.20;99.90
28767;DHT22;15921;52.034;20.650;2023-12-20T02:44:26;6.20;99.90
28767;DHT22;15921;52.034;20.650;2023-12-20T02:46:52;6.20;99.90
28767;DHT22;15921;52.034;20.650;2023-12-20T02:49:18;6.20;99.90
28767;DHT22;15921;52.034;20.650;2023-12-20T02:51:43;6.20;99.90
28767;DHT22;15921;52.034;20.650;2023-12-20T02:54:09;6.20;99.90
28767;DHT22;15921;52.034;20.650;2023-12-20T02:56:35;6.20;99.90
28767;DHT22;15921;52.034;20.650;2023-12-20T02:59:01;6.20;99.90
28767;DHT22;15921;52.034;20.650;2023-12-20T03:01:27;6.20;99.90
28767;DHT22;15921;52.034;20.650;2023-12-20T03:03:53;6.10;99.90
28767;DHT22;15921;52.034;20.650;2023-12-20T03:06:19;6.10;99.90
28767;DHT22;15921;52.034;20.650;2023-12-20T03:08:45;6.10;99.90
28767;DHT22;15921;52.034;20.650;2023-12-20T03:11:11;6.20;99.90
28767;DHT22;15921;52.034;20.650;2023-12-20T03:13:37;6.20;99.90
28767;DHT22;15921;52.034;20.650;2023-12-20T03:16:12;6.20;99.90
28767;DHT22;15921;52.034;20.650;2023-12-20T03:18:38;6.20;99.90
28767;DHT22;15921;52.034;20.650;2023-12-20T03:21:04;6.20;99.90
28767;DHT22;15921;52.034;20.650;2023-12-20T03:23:31;6.20;99.90
28767;DHT22;15921;52.034;20.650;2023-12-20T03:25:58;6.20;99.90
28767;DHT22;15921;52.034;20.650;2023-12-20T03:28:24;6.20;99.90
28767;DHT22;15921;52.034;20.650;2023-12-20T03:30:50;6.20;99.90
28767;DHT22;15921;52.034;20.650;2023-12-20T03:33:16;6.20;99.90
28767;DHT22;15921;52.034;20.650;2023-12-20T03:35:42;6.20;99.90
28767;DHT22;15921;52.034;20.650;2023-12-20T03:38:07;6.20;99.90
28767;DHT22;15921;52.034;20.650;2023-12-20T03:40:33;6.30;99.90
28767;DHT22;15921;52.034;20.650;2023-12-20T03:42:59;6.30;99.90
28767;DHT22;15921;52.034;20.650;2023-12-20T03:45:25;6.30;99.90
28767;DHT22;15921;52.034;20.650;2023-12-20T03:47:51;6.30;99.90
28767;DHT22;15921;52.034;20.650;2023-12-20T03:50:24;6.30;99.90
28767;DHT22;15921;52.034;20.650;2023-12-20T03:52:49;6.20;99.90
28767;DHT22;15921;52.034;20.650;2023-12-20T03:55:15;6.20;99.90
28767;DHT22;15921;52.034;20.650;2023-12-20T03:57:41;6.20;99.90
28767;DHT22;15921;52.034;20.650;2023-12-20T04:00:10;6.20;99.90
28767;DHT22;15921;52.034;20.650;2023-12-20T04:02:39;6.20;99.90
28767;DHT22;15921;52.034;20.650;2023-12-20T04:05:06;6.20;99.90
28767;DHT22;15921;52.034;20.650;2023-12-20T04:07:32;6.20;99.90
28767;DHT22;15921;52.034;20.650;2023-12-20T04:09:58;6.20;99.90
28767;DHT22;15921;52.034;20.650;2023-12-20T04:12:24;6.20;99.90
28767;DHT22;15921;52.034;20.650;2023-12-20T04:14:50;6.30;99.90
28767;DHT22;15921;52.034;20.650;2023-12-20T04:17:16;6.30;99.90
28767;DHT22;15921;52.034;20.650;2023-12-20T04:19:42;6.30;99.90
28767;DHT22;15921;52.034;20.650;2023-12-20T04:22:08;6.20;99.90
28767;DHT22;15921;52.034;20.650;2023-12-20T04:24:34;6.30;99.90
28767;DHT22;15921;52.034;20.650;2023-12-20T04:27:00;6.20;99.90
28767;DHT22;15921;52.034;20.650;2023-12-20T04:29:26;6.30;99.90
28767;DHT22;15921;52.034;20.650;2023-12-20T04:31:51;6.30;99.90
28767;DHT22;15921;52.034;20.650;2023-12-20T04:34:18;6.30;99.90
28767;DHT22;15921;52.034;20.650;2023-12-20T04:36:43;6.30;99.90
28767;DHT22;15921;52.034;20.650;2023-12-20T04:39:11;6.30;99.90
28767;DHT22;15921;52.034;20.650;2023-12-20T04:41:36;6.30;99.90
28767;DHT22;15921;52.034;20.650;2023-12-20T04:44:02;6.30;99.90
28767;DHT22;15921;52.034;20.650;2023-12-20T04:46:28;6.30;99.90
28767;DHT22;15921;52.034;20.650;2023-12-20T04:48:53;6.30;99.90
28767;DHT22;15921;52.034;20.650;2023-12-20T04:51:19;6.30;99.90
28767;DHT22;15921;52.034;20.650;2023-12-20T04:53:45;6.30;99.90
28767;DHT22;15921;52.034;20.650;2023-12-20T04:56:11;6.30;99.90
28767;DHT22;15921;52.034;20.650;2023-12-20T04:58:37;6.30;99.90
28767;DHT22;15921;52.034;20.650;2023-12-20T05:01:04;6.30;99.90
28767;DHT22;15921;52.034;20.650;2023-12-20T05:03:31;6.30;99.90
28767;DHT22;15921;52.034;20.650;2023-12-20T05:05:56;6.30;99.90
28767;DHT22;15921;52.034;20.650;2023-12-20T05:08:22;6.40;99.90
28767;DHT22;15921;52.034;20.650;2023-12-20T05:10:48;6.30;99.90
28767;DHT22;15921;52.034;20.650;2023-12-20T05:13:13;6.30;99.90
28767;DHT22;15921;52.034;20.650;2023-12-20T05:15:39;6.30;99.90
28767;DHT22;15921;52.034;20.650;2023-12-20T05:18:05;6.30;99.90
28767;DHT22;15921;52.034;20.650;2023-12-20T05:20:30;6.30;99.90
28767;DHT22;15921;52.034;20.650;2023-12-20T05:22:56;6.40;99.90
28767;DHT22;15921;52.034;20.650;2023-12-20T05:25:22;6.40;99.90
28767;DHT22;15921;52.034;20.650;2023-12-20T05:27:48;6.30;99.90
28767;DHT22;15921;52.034;20.650;2023-12-20T05:30:13;6.30;99.90
28767;DHT22;15921;52.034;20.650;2023-12-20T05:32:39;6.30;99.90
28767;DHT22;15921;52.034;20.650;2023-12-20T05:35:05;6.30;99.90
28767;DHT22;15921;52.034;20.650;2023-12-20T05:37:31;6.30;99.90
28767;DHT22;15921;52.034;20.650;2023-12-20T05:39:57;6.30;99.90
28767;DHT22;15921;52.034;20.650;2023-12-20T05:42:22;6.30;99.90
28767;DHT22;15921;52.034;20.650;2023-12-20T05:44:48;6.30;99.90
28767;DHT22;15921;52.034;20.650;2023-12-20T05:47:14;6.30;99.90
28767;DHT22;15921;52.034;20.650;2023-12-20T05:49:40;6.30;99.90
28767;DHT22;15921;52.034;20.650;2023-12-20T05:52:05;6.30;99.90
28767;DHT22;15921;52.034;20.650;2023-12-20T05:54:31;6.30;99.90
28767;DHT22;15921;52.034;20.650;2023-12-20T05:56:57;6.30;99.90
28767;DHT22;15921;52.034;20.650;2023-12-20T05:59:23;6.30;99.90
28767;DHT22;15921;52.034;20.650;2023-12-20T06:01:49;6.30;99.90
28767;DHT22;15921;52.034;20.650;2023-12-20T06:04:15;6.30;99.90
28767;DHT22;15921;52.034;20.650;2023-12-20T06:06:41;6.40;99.90
28767;DHT22;15921;52.034;20.650;2023-12-20T06:09:08;6.40;99.90
28767;DHT22;15921;52.034;20.650;2023-12-20T06:11:33;6.40;99.90
28767;DHT22;15921;52.034;20.650;2023-12-20T06:13:59;6.40;99.90
28767;DHT22;15921;52.034;20.650;2023-12-20T06:16:24;6.40;99.90
28767;DHT22;15921;52.034;20.650;2023-12-20T06:18:50;6.40;99.90
28767;DHT22;15921;52.034;20.650;2023-12-20T06:21:16;6.40;99.90
28767;DHT22;15921;52.034;20.650;2023-12-20T06:23:41;6.40;99.90
28767;DHT22;15921;52.034;20.650;2023-12-20T06:26:07;6.40;99.90
28767;DHT22;15921;52.034;20.650;2023-12-20T06:28:33;6.30;99.90
28767;DHT22;15921;52.034;20.650;2023-12-20T06:30:58;6.40;99.90
28767;DHT22;15921;52.034;20.650;2023-12-20T06:33:26;6.30;99.90
28767;DHT22;15921;52.034;20.650;2023-12-20T06:35:51;6.30;99.90
28767;DHT22;15921;52.034;20.650;2023-12-20T06:38:18;6.30;99.90
28767;DHT22;15921;52.034;20.650;2023-12-20T06:40:44;6.30;99.90
28767;DHT22;15921;52.034;20.650;2023-12-20T06:43:10;6.30;99.90
28767;DHT22;15921;52.034;20.650;2023-12-20T06:45:36;6.30;99.90
28767;DHT22;15921;52.034;20.650;2023-12-20T06:48:01;6.30;99.90
28767;DHT22;15921;52.034;20.650;2023-12-20T06:50:27;6.30;99.90
28767;DHT22;15921;52.034;20.650;2023-12-20T06:52:53;6.30;99.90
28767;DHT22;15921;52.034;20.650;2023-12-20T06:55:19;6.30;99.90
28767;DHT22;15921;52.034;20.650;2023-12-20T06:57:44;6.30;99.90
28767;DHT22;15921;52.034;20.650;2023-12-20T07:00:11;6.30;99.90
28767;DHT22;15921;52.034;20.650;2023-12-20T07:02:37;6.30;99.90
28767;DHT22;15921;52.034;20.650;2023-12-20T07:05:03;6.30;99.90
28767;DHT22;15921;52.034;20.650;2023-12-20T07:07:30;6.30;99.90
28767;DHT22;15921;52.034;20.650;2023-12-20T07:09:55;6.30;99.90
28767;DHT22;15921;52.034;20.650;2023-12-20T07:12:21;6.30;99.90
28767;DHT22;15921;52.034;20.650;2023-12-20T07:14:47;6.30;99.90
28767;DHT22;15921;52.034;20.650;2023-12-20T07:17:13;6.30;99.90
28767;DHT22;15921;52.034;20.650;2023-12-20T07:19:41;6.30;99.90
28767;DHT22;15921;52.034;20.650;2023-12-20T07:22:07;6.30;99.90
28767;DHT22;15921;52.034;20.650;2023-12-20T07:24:33;6.30;99.90
28767;DHT22;15921;52.034;20.650;2023-12-20T07:27:02;6.30;99.90
28767;DHT22;15921;52.034;20.650;2023-12-20T07:29:28;6.30;99.90
28767;DHT22;15921;52.034;20.650;2023-12-20T07:31:54;6.30;99.90
28767;DHT22;15921;52.034;20.650;2023-12-20T07:34:20;6.30;99.90
28767;DHT22;15921;52.034;20.650;2023-12-20T07:36:46;6.30;99.90
28767;DHT22;15921;52.034;20.650;2023-12-20T07:39:12;6.30;99.90
28767;DHT22;15921;52.034;20.650;2023-12-20T07:41:38;6.30;99.90
28767;DHT22;15921;52.034;20.650;2023-12-20T07:44:04;6.30;99.90
28767;DHT22;15921;52.034;20.650;2023-12-20T07:46:30;6.30;99.90
28767;DHT22;15921;52.034;20.650;2023-12-20T07:48:56;6.30;99.90
28767;DHT22;15921;52.034;20.650;2023-12-20T07:51:21;6.30;99.90
28767;DHT22;15921;52.034;20.650;2023-12-20T07:53:47;6.30;99.90
28767;DHT22;15921;52.034;20.650;2023-12-20T07:56:17;6.30;99.90
28767;DHT22;15921;52.034;20.650;2023-12-20T07:58:43;6.40;99.90
28767;DHT22;15921;52.034;20.650;2023-12-20T08:01:09;6.30;99.90
28767;DHT22;15921;52.034;20.650;2023-12-20T08:03:35;6.30;99.90
28767;DHT22;15921;52.034;20.650;2023-12-20T08:06:02;6.30;99.90
28767;DHT22;15921;52.034;20.650;2023-12-20T08:08:28;6.30;99.90
28767;DHT22;15921;52.034;20.650;2023-12-20T08:10:53;6.40;99.90
28767;DHT22;15921;52.034;20.650;2023-12-20T08:13:19;6.40;99.90
28767;DHT22;15921;52.034;20.650;2023-12-20T08:15:45;6.40;99.90
28767;DHT22;15921;52.034;20.650;2023-12-20T08:18:10;6.40;99.90
28767;DHT22;15921;52.034;20.650;2023-12-20T08:20:36;6.40;99.90
28767;DHT22;15921;52.034;20.650;2023-12-20T08:23:02;6.40;99.90
28767;DHT22;15921;52.034;20.650;2023-12-20T08:25:28;6.40;99.90
28767;DHT22;15921;52.034;20.650;2023-12-20T08:27:53;6.40;99.90
28767;DHT22;15921;52.034;20.650;2023-12-20T08:30:19;6.40;99.90
28767;DHT22;15921;52.034;20.650;2023-12-20T08:32:48;6.40;99.90
28767;DHT22;15921;52.034;20.650;2023-12-20T08:35:14;6.40;99.90
28767;DHT22;15921;52.034;20.650;2023-12-20T08:37:39;6.40;99.90
28767;DHT22;15921;52.034;20.650;2023-12-20T08:40:05;6.40;99.90
28767;DHT22;15921;52.034;20.650;2023-12-20T08:42:31;6.40;99.90
28767;DHT22;15921;52.034;20.650;2023-12-20T08:44:58;6.50;99.90
28767;DHT22;15921;52.034;20.650;2023-12-20T08:47:26;6.50;99.90
28767;DHT22;15921;52.034;20.650;2023-12-20T08:49:52;6.50;99.90
28767;DHT22;15921;52.034;20.650;2023-12-20T08:52:22;6.50;99.90
28767;DHT22;15921;52.034;20.650;2023-12-20T08:54:49;6.60;99.90
28767;DHT22;15921;52.034;20.650;2023-12-20T08:57:20;6.60;99.90
28767;DHT22;15921;52.034;20.650;2023-12-20T08:59:47;6.60;99.90
28767;DHT22;15921;52.034;20.650;2023-12-20T09:02:13;6.50;99.90
28767;DHT22;15921;52.034;20.650;2023-12-20T09:04:39;6.60;99.90
28767;DHT22;15921;52.034;20.650;2023-12-20T09:07:05;6.50;99.90
28767;DHT22;15921;52.034;20.650;2023-12-20T09:09:31;6.60;99.90
28767;DHT22;15921;52.034;20.650;2023-12-20T09:11:57;6.50;99.90
28767;DHT22;15921;52.034;20.650;2023-12-20T09:14:23;6.50;99.90
28767;DHT22;15921;52.034;20.650;2023-12-20T09:16:49;6.50;99.90
28767;DHT22;15921;52.034;20.650;2023-12-20T09:19:17;6.50;99.90
28767;DHT22;15921;52.034;20.650;2023-12-20T09:21:43;6.50;99.90
28767;DHT22;15921;52.034;20.650;2023-12-20T09:24:08;6.50;99.90
28767;DHT22;15921;52.034;20.650;2023-12-20T09:26:35;6.50;99.90
28767;DHT22;15921;52.034;20.650;2023-12-20T09:29:00;6.50;99.90
28767;DHT22;15921;52.034;20.650;2023-12-20T09:31:26;6.50;99.90
28767;DHT22;15921;52.034;20.650;2023-12-20T09:33:52;6.50;99.90
28767;DHT22;15921;52.034;20.650;2023-12-20T09:36:18;6.50;99.90
28767;DHT22;15921;52.034;20.650;2023-12-20T09:38:43;6.50;99.90
28767;DHT22;15921;52.034;20.650;2023-12-20T09:41:09;6.50;99.90
28767;DHT22;15921;52.034;20.650;2023-12-20T09:43:37;6.50;99.90
28767;DHT22;15921;52.034;20.650;2023-12-20T09:46:05;6.50;99.90
28767;DHT22;15921;52.034;20.650;2023-12-20T09:48:33;6.50;99.90
28767;DHT22;15921;52.034;20.650;2023-12-20T09:50:59;6.60;99.90
28767;DHT22;15921;52.034;20.650;2023-12-20T09:53:25;6.60;99.90
28767;DHT22;15921;52.034;20.650;2023-12-20T09:55:58;6.60;99.90
28767;DHT22;15921;52.034;20.650;2023-12-20T09:58:25;6.60;99.90
28767;DHT22;15921;52.034;20.650;2023-12-20T10:00:51;6.60;99.90
28767;DHT22;15921;52.034;20.650;2023-12-20T10:03:25;6.60;99.90
28767;DHT22;15921;52.034;20.650;2023-12-20T10:05:52;6.60;99.90
28767;DHT22;15921;52.034;20.650;2023-12-20T10:08:21;6.50;99.90
28767;DHT22;15921;52.034;20.650;2023-12-20T10:10:47;6.50;99.90
28767;DHT22;15921;52.034;20.650;2023-12-20T10:13:13;6.50;99.90
28767;DHT22;15921;52.034;20.650;2023-12-20T10:15:39;6.50;99.90
28767;DHT22;15921;52.034;20.650;2023-12-20T10:18:06;6.50;99.90
28767;DHT22;15921;52.034;20.650;2023-12-20T10:20:32;6.50;99.90
28767;DHT22;15921;52.034;20.650;2023-12-20T10:22:59;6.50;99.90
28767;DHT22;15921;52.034;20.650;2023-12-20T10:25:25;6.60;99.90
28767;DHT22;15921;52.034;20.650;2023-12-20T10:28:09;6.60;99.90
28767;DHT22;15921;52.034;20.650;2023-12-20T10:30:35;6.60;99.90
28767;DHT22;15921;52.034;20.650;2023-12-20T10:33:01;6.60;99.90
28767;DHT22;15921;52.034;20.650;2023-12-20T10:35:26;6.70;99.90
28767;DHT22;15921;52.034;20.650;2023-12-20T10:37:55;6.60;99.90
28767;DHT22;15921;52.034;20.650;2023-12-20T10:40:26;6.60;99.90
28767;DHT22;15921;52.034;20.650;2023-12-20T10:42:53;6.70;99.90
28767;DHT22;15921;52.034;20.650;2023-12-20T10:45:19;6.70;99.90
28767;DHT22;15921;52.034;20.650;2023-12-20T10:47:46;6.70;99.90
28767;DHT22;15921;52.034;20.650;2023-12-20T10:50:12;6.70;99.90
28767;DHT22;15921;52.034;20.650;2023-12-20T10:52:38;6.70;99.90
28767;DHT22;15921;52.034;20.650;2023-12-20T10:55:06;6.70;99.90
28767;DHT22;15921;52.034;20.650;2023-12-20T10:57:32;6.70;99.90
28767;DHT22;15921;52.034;20.650;2023-12-20T11:00:01;6.70;99.90
28767;DHT22;15921;52.034;20.650;2023-12-20T11:02:32;6.70;99.90
28767;DHT22;15921;52.034;20.650;2023-12-20T11:07:54;6.70;99.90
28767;DHT22;15921;52.034;20.650;2023-12-20T11:10:45;6.70;99.90
28767;DHT22;15921;52.034;20.650;2023-12-20T11:13:31;6.70;99.90
28767;DHT22;15921;52.034;20.650;2023-12-20T11:15:58;6.70;99.90
28767;DHT22;15921;52.034;20.650;2023-12-20T11:18:30;6.70;99.90
28767;DHT22;15921;52.034;20.650;2023-12-20T11:21:00;6.60;99.90
28767;DHT22;15921;52.034;20.650;2023-12-20T11:23:27;6.60;99.90
28767;DHT22;15921;52.034;20.650;2023-12-20T11:25:56;6.60;99.90
28767;DHT22;15921;52.034;20.650;2023-12-20T11:28:26;6.60;99.90
28767;DHT22;15921;52.034;20.650;2023-12-20T11:30:56;6.60;99.90
28767;DHT22;15921;52.034;20.650;2023-12-20T11:33:38;6.70;99.90
28767;DHT22;15921;52.034;20.650;2023-12-20T11:36:13;6.70;99.90
28767;DHT22;15921;52.034;20.650;2023-12-20T11:38:42;6.70;99.90
28767;DHT22;15921;52.034;20.650;2023-12-20T11:41:15;6.70;99.90
28767;DHT22;15921;52.034;20.650;2023-12-20T11:43:41;6.70;99.90
28767;DHT22;15921;52.034;20.650;2023-12-20T11:46:08;6.60;99.90
28767;DHT22;15921;52.034;20.650;2023-12-20T11:48:38;6.60;99.90
28767;DHT22;15921;52.034;20.650;2023-12-20T11:51:12;6.50;99.90
28767;DHT22;15921;52.034;20.650;2023-12-20T11:53:38;6.40;99.90
28767;DHT22;15921;52.034;20.650;2023-12-20T11:56:06;6.40;99.90
28767;DHT22;15921;52.034;20.650;2023-12-20T11:58:33;6.40;99.90
28767;DHT22;15921;52.034;20.650;2023-12-20T12:00:58;6.40;99.90
28767;DHT22;15921;52.034;20.650;2023-12-20T12:03:24;6.40;99.90
28767;DHT22;15921;52.034;20.650;2023-12-20T12:05:50;6.30;99.90
28767;DHT22;15921;52.034;20.650;2023-12-20T12:08:17;6.30;99.90
28767;DHT22;15921;52.034;20.650;2023-12-20T12:10:45;6.30;99.90
28767;DHT22;15921;52.034;20.650;2023-12-20T12:13:12;6.20;99.90
28767;DHT22;15921;52.034;20.650;2023-12-20T12:15:39;6.20;99.90
28767;DHT22;15921;52.034;20.650;2023-12-20T12:18:05;6.20;99.90
28767;DHT22;15921;52.034;20.650;2023-12-20T12:20:31;6.10;99.90
28767;DHT22;15921;52.034;20.650;2023-12-20T12:23:04;6.10;99.90
28767;DHT22;15921;52.034;20.650;2023-12-20T12:25:31;6.00;99.90
28767;DHT22;15921;52.034;20.650;2023-12-20T12:28:00;6.00;99.90
28767;DHT22;15921;52.034;20.650;2023-12-20T12:30:26;6.00;99.90
28767;DHT22;15921;52.034;20.650;2023-12-20T12:32:52;6.00;99.90
28767;DHT22;15921;52.034;20.650;2023-12-20T12:35:19;6.00;99.90
28767;DHT22;15921;52.034;20.650;2023-12-20T12:37:45;6.00;99.90
28767;DHT22;15921;52.034;20.650;2023-12-20T12:40:12;5.90;99.90
28767;DHT22;15921;52.034;20.650;2023-12-20T12:42:39;5.90;99.90
28767;DHT22;15921;52.034;20.650;2023-12-20T12:45:06;6.00;99.90
28767;DHT22;15921;52.034;20.650;2023-12-20T12:47:32;5.90;99.90
28767;DHT22;15921;52.034;20.650;2023-12-20T12:49:58;5.90;99.90
28767;DHT22;15921;52.034;20.650;2023-12-20T12:52:24;6.00;99.90
28767;DHT22;15921;52.034;20.650;2023-12-20T12:54:49;5.90;99.90
28767;DHT22;15921;52.034;20.650;2023-12-20T12:57:15;6.00;99.90
28767;DHT22;15921;52.034;20.650;2023-12-20T12:59:42;6.00;99.90
28767;DHT22;15921;52.034;20.650;2023-12-20T13:02:09;6.00;99.90
28767;DHT22;15921;52.034;20.650;2023-12-20T13:04:35;6.00;99.90
28767;DHT22;15921;52.034;20.650;2023-12-20T13:07:01;6.00;99.90
28767;DHT22;15921;52.034;20.650;2023-12-20T13:09:26;5.90;99.90
28767;DHT22;15921;52.034;20.650;2023-12-20T13:11:52;5.90;99.90
28767;DHT22;15921;52.034;20.650;2023-12-20T13:14:18;6.00;99.90
28767;DHT22;15921;52.034;20.650;2023-12-20T13:16:43;6.00;99.90
28767;DHT22;15921;52.034;20.650;2023-12-20T13:19:11;6.00;99.90
28767;DHT22;15921;52.034;20.650;2023-12-20T13:21:37;6.00;99.90
28767;DHT22;15921;52.034;20.650;2023-12-20T13:24:03;6.10;99.90
28767;DHT22;15921;52.034;20.650;2023-12-20T13:26:29;6.20;99.90
28767;DHT22;15921;52.034;20.650;2023-12-20T13:28:55;6.30;99.90
28767;DHT22;15921;52.034;20.650;2023-12-20T13:31:20;6.40;99.90
28767;DHT22;15921;52.034;20.650;2023-12-20T13:33:46;6.50;99.90
28767;DHT22;15921;52.034;20.650;2023-12-20T13:36:12;6.40;99.90
28767;DHT22;15921;52.034;20.650;2023-12-20T13:38:38;6.40;99.90
28767;DHT22;15921;52.034;20.650;2023-12-20T13:41:04;6.30;99.90
28767;DHT22;15921;52.034;20.650;2023-12-20T13:43:31;6.10;99.90
28767;DHT22;15921;52.034;20.650;2023-12-20T13:45:58;6.00;99.90
28767;DHT22;15921;52.034;20.650;2023-12-20T13:48:24;5.90;99.90
28767;DHT22;15921;52.034;20.650;2023-12-20T13:50:50;5.90;99.90
28767;DHT22;15921;52.034;20.650;2023-12-20T13:53:15;5.90;99.90
28767;DHT22;15921;52.034;20.650;2023-12-20T13:55:41;5.90;99.90
28767;DHT22;15921;52.034;20.650;2023-12-20T13:58:07;5.90;99.90
28767;DHT22;15921;52.034;20.650;2023-12-20T14:00:33;5.90;99.90
28767;DHT22;15921;52.034;20.650;2023-12-20T14:02:58;5.80;99.90
28767;DHT22;15921;52.034;20.650;2023-12-20T14:05:24;5.80;99.90
28767;DHT22;15921;52.034;20.650;2023-12-20T14:07:50;5.70;99.90
28767;DHT22;15921;52.034;20.650;2023-12-20T14:10:16;5.70;99.90
28767;DHT22;15921;52.034;20.650;2023-12-20T14:12:42;5.70;99.90
28767;DHT22;15921;52.034;20.650;2023-12-20T14:15:09;5.60;99.90
28767;DHT22;15921;52.034;20.650;2023-12-20T14:17:40;5.60;99.90
28767;DHT22;15921;52.034;20.650;2023-12-20T14:20:08;5.60;99.90
28767;DHT22;15921;52.034;20.650;2023-12-20T14:22:34;5.60;99.90
28767;DHT22;15921;52.034;20.650;2023-12-20T14:25:01;5.60;99.90
28767;DHT22;15921;52.034;20.650;2023-12-20T14:27:27;5.50;99.90
28767;DHT22;15921;52.034;20.650;2023-12-20T14:29:55;5.60;99.90
28767;DHT22;15921;52.034;20.650;2023-12-20T14:32:21;5.50;99.90
28767;DHT22;15921;52.034;20.650;2023-12-20T14:34:47;5.50;99.90
28767;DHT22;15921;52.034;20.650;2023-12-20T14:37:12;5.50;99.90
28767;DHT22;15921;52.034;20.650;2023-12-20T14:39:38;5.50;99.90
28767;DHT22;15921;52.034;20.650;2023-12-20T14:42:07;5.50;99.90
28767;DHT22;15921;52.034;20.650;2023-12-20T14:44:37;5.50;99.90
28767;DHT22;15921;52.034;20.650;2023-12-20T14:47:04;5.40;99.90
28767;DHT22;15921;52.034;20.650;2023-12-20T14:49:30;5.40;99.90
28767;DHT22;15921;52.034;20.650;2023-12-20T14:51:55;5.30;99.90
28767;DHT22;15921;52.034;20.650;2023-12-20T14:54:21;5.20;99.90
28767;DHT22;15921;52.034;20.650;2023-12-20T14:56:47;5.20;99.90
28767;DHT22;15921;52.034;20.650;2023-12-20T14:59:13;5.10;99.90
28767;DHT22;15921;52.034;20.650;2023-12-20T15:01:39;5.00;99.90
28767;DHT22;15921;52.034;20.650;2023-12-20T15:04:09;5.00;99.90
28767;DHT22;15921;52.034;20.650;2023-12-20T15:06:35;5.00;99.90
28767;DHT22;15921;52.034;20.650;2023-12-20T15:09:01;5.00;99.90
28767;DHT22;15921;52.034;20.650;2023-12-20T15:11:33;5.10;99.90
28767;DHT22;15921;52.034;20.650;2023-12-20T15:14:01;5.10;99.90
28767;DHT22;15921;52.034;20.650;2023-12-20T15:16:27;5.10;99.90
28767;DHT22;15921;52.034;20.650;2023-12-20T15:18:53;5.20;99.90
28767;DHT22;15921;52.034;20.650;2023-12-20T15:21:19;5.20;99.90
28767;DHT22;15921;52.034;20.650;2023-12-20T15:23:45;5.30;99.90
28767;DHT22;15921;52.034;20.650;2023-12-20T15:26:21;5.30;99.90
28767;DHT22;15921;52.034;20.650;2023-12-20T15:28:47;5.40;99.90